createdAt,value
2022-10-06T00:01:18.469Z,10.13
2022-10-06T00:04:03.906Z,9.55
2022-10-06T00:06:49.527Z,9.55
2022-10-06T00:09:34.917Z,8.93
2022-10-06T00:12:20.518Z,9.30
2022-10-06T00:15:06.878Z,8.68
2022-10-06T00:17:52.768Z,8.50
2022-10-06T00:20:38.383Z,8.43
2022-10-06T00:23:24.658Z,8.60
2022-10-06T00:26:17.447Z,7.55
2022-10-06T00:29:03.603Z,7.50
2022-10-06T00:31:49.392Z,7.57
2022-10-06T00:34:36.611Z,6.65
2022-10-06T00:37:22.086Z,7.65
2022-10-06T00:40:09.870Z,6.85
2022-10-06T00:42:58.503Z,6.75
2022-10-06T00:45:46.438Z,7.07
2022-10-06T00:48:32.320Z,7.15
2022-10-06T00:51:18.601Z,6.50
2022-10-06T00:54:04.425Z,6.22
2022-10-06T00:56:50.634Z,6.50
2022-10-06T00:59:37.092Z,5.55
2022-10-06T01:02:29.472Z,6.20
2022-10-06T01:05:23.064Z,6.00
2022-10-06T01:08:09.001Z,5.70
2022-10-06T01:10:54.629Z,6.00
2022-10-06T01:13:43.386Z,6.20
2022-10-06T01:16:29.485Z,6.15
2022-10-06T01:19:26.576Z,6.30
2022-10-06T01:22:14.884Z,5.32
2022-10-06T01:25:00.882Z,6.13
2022-10-06T01:27:53.809Z,5.90
2022-10-06T01:30:52.631Z,6.32
2022-10-06T01:33:39.786Z,5.95
2022-10-06T01:36:25.522Z,5.93
2022-10-06T01:39:10.908Z,5.80
2022-10-06T01:41:57.310Z,5.72
2022-10-06T01:44:42.958Z,5.85
2022-10-06T01:47:29.076Z,5.53
2022-10-06T01:50:15.494Z,5.78
2022-10-06T01:53:01.888Z,5.57
2022-10-06T01:55:48.559Z,5.75
2022-10-06T01:58:39.075Z,5.90
2022-10-06T02:01:25.763Z,6.10
2022-10-06T02:04:13.069Z,6.60
2022-10-06T02:06:59.341Z,8.57
2022-10-06T02:09:45.482Z,5.95
2022-10-06T02:12:31.831Z,6.05
2022-10-06T02:15:20.608Z,5.60
2022-10-06T02:18:06.547Z,5.80
2022-10-06T02:20:52.190Z,5.32
2022-10-06T02:23:37.676Z,5.88
2022-10-06T02:26:23.408Z,5.15
2022-10-06T02:29:10.347Z,6.18
2022-10-06T02:31:56.009Z,5.70
2022-10-06T02:34:42.476Z,5.20
2022-10-06T02:37:28.471Z,5.30
2022-10-06T02:40:16.327Z,5.90
2022-10-06T02:43:04.393Z,6.88
2022-10-06T02:45:55.945Z,6.65
2022-10-06T02:48:43.108Z,6.78
2022-10-06T02:51:32.785Z,6.40
2022-10-06T02:54:19.654Z,5.85
2022-10-06T02:57:05.458Z,5.85
2022-10-06T02:59:51.792Z,5.95
2022-10-06T03:02:38.488Z,6.60
2022-10-06T03:05:24.261Z,5.93
2022-10-06T03:08:11.214Z,6.13
2022-10-06T03:11:04.887Z,6.43
2022-10-06T03:13:51.539Z,6.07
2022-10-06T03:16:39.566Z,6.97
2022-10-06T03:19:29.234Z,6.82
2022-10-06T03:22:14.949Z,6.00
2022-10-06T03:25:10.817Z,5.78
2022-10-06T03:27:56.722Z,6.10
2022-10-06T03:30:42.331Z,6.40
2022-10-06T03:33:29.268Z,7.22
2022-10-06T03:36:18.357Z,6.53
2022-10-06T03:39:04.941Z,5.82
2022-10-06T03:41:51.959Z,6.18
2022-10-06T03:44:38.181Z,5.60
2022-10-06T03:47:24.166Z,6.18
2022-10-06T03:50:10.060Z,5.97
2022-10-06T03:52:56.012Z,5.78
2022-10-06T03:55:41.796Z,6.53
2022-10-06T03:58:28.997Z,6.07
2022-10-06T04:01:29.103Z,5.90
2022-10-06T04:04:15.504Z,5.50
2022-10-06T04:07:03.742Z,5.80
2022-10-06T04:09:49.630Z,5.93
2022-10-06T04:12:36.609Z,5.60
2022-10-06T04:15:22.251Z,5.68
2022-10-06T04:18:07.961Z,5.05
2022-10-06T04:20:59.884Z,6.03
2022-10-06T04:23:45.866Z,6.10
2022-10-06T04:26:36.012Z,5.30
2022-10-06T04:29:21.893Z,5.28
2022-10-06T04:32:12.299Z,5.47
2022-10-06T04:34:58.388Z,6.43
2022-10-06T04:37:46.971Z,6.07
2022-10-06T04:40:33.333Z,6.75
2022-10-06T04:43:19.510Z,5.50
2022-10-06T04:46:23.901Z,6.15
2022-10-06T04:49:17.918Z,5.18
2022-10-06T04:52:06.469Z,5.63
2022-10-06T04:54:55.591Z,6.25
2022-10-06T04:57:42.029Z,5.72
2022-10-06T05:00:27.973Z,5.40
2022-10-06T05:03:15.362Z,6.20
2022-10-06T05:06:07.383Z,5.57
2022-10-06T05:08:55.302Z,5.57
2022-10-06T05:11:41.271Z,5.90
2022-10-06T05:14:29.892Z,5.22
2022-10-06T05:17:15.348Z,6.28
2022-10-06T05:20:01.750Z,6.15
2022-10-06T05:22:47.183Z,5.53
2022-10-06T05:25:32.810Z,5.20
2022-10-06T05:28:18.710Z,5.20
2022-10-06T05:31:11.917Z,5.65
2022-10-06T05:33:58.803Z,5.80
2022-10-06T05:36:46.228Z,5.25
2022-10-06T05:39:31.883Z,5.38
2022-10-06T05:42:17.901Z,5.85
2022-10-06T05:45:03.304Z,5.82
2022-10-06T05:47:49.450Z,5.57
2022-10-06T05:50:34.963Z,6.07
2022-10-06T05:53:21.583Z,5.07
2022-10-06T05:56:12.649Z,5.50
2022-10-06T05:58:59.970Z,5.82
2022-10-06T06:01:47.137Z,5.35
2022-10-06T06:04:50.637Z,5.07
2022-10-06T06:07:37.084Z,5.50
2022-10-06T06:10:22.731Z,5.50
2022-10-06T06:13:09.112Z,5.57
2022-10-06T06:16:06.000Z,5.20
2022-10-06T06:18:52.921Z,5.60
2022-10-06T06:21:39.068Z,5.38
2022-10-06T06:24:25.038Z,4.53
2022-10-06T06:27:10.887Z,4.60
2022-10-06T06:29:58.289Z,4.72
2022-10-06T06:32:45.230Z,5.38
2022-10-06T06:35:30.700Z,5.50
2022-10-06T06:38:18.281Z,4.97
2022-10-06T06:41:04.171Z,4.93
2022-10-06T06:43:50.465Z,4.20
2022-10-06T06:46:45.859Z,4.57
2022-10-06T06:49:35.038Z,4.32
2022-10-06T06:52:26.006Z,4.75
2022-10-06T06:55:11.923Z,4.43
2022-10-06T06:57:57.479Z,4.88
2022-10-06T07:00:43.927Z,4.05
2022-10-06T07:03:55.975Z,4.00
2022-10-06T07:06:38.057Z,4.32
2022-10-06T07:09:27.060Z,4.65
2022-10-06T07:12:19.405Z,4.68
2022-10-06T07:15:29.142Z,4.80
2022-10-06T07:18:33.879Z,4.45
2022-10-06T07:21:38.533Z,4.80
2022-10-06T07:24:43.454Z,4.97
2022-10-06T07:27:30.273Z,4.60
2022-10-06T07:30:19.645Z,4.10
2022-10-06T07:33:09.899Z,4.35
2022-10-06T07:35:57.119Z,4.63
2022-10-06T07:38:42.740Z,4.75
2022-10-06T07:41:29.548Z,4.38
2022-10-06T07:44:18.473Z,5.32
2022-10-06T07:47:06.728Z,4.72
2022-10-06T07:50:12.999Z,4.30
2022-10-06T07:53:09.161Z,4.60
2022-10-06T07:56:07.355Z,4.57
2022-10-06T07:58:58.843Z,4.20
2022-10-06T08:01:45.802Z,4.30
2022-10-06T08:04:31.869Z,4.93
2022-10-06T08:07:17.216Z,4.28
2022-10-06T08:10:03.419Z,4.65
2022-10-06T08:12:49.094Z,4.20
2022-10-06T08:15:35.082Z,3.97
2022-10-06T08:18:44.223Z,3.80
2022-10-06T08:21:29.114Z,4.18
2022-10-06T08:24:14.905Z,3.70
2022-10-06T08:27:00.768Z,3.47
2022-10-06T08:29:46.129Z,3.90
2022-10-06T08:32:32.892Z,4.15
2022-10-06T08:35:18.245Z,4.03
2022-10-06T08:38:04.227Z,3.20
2022-10-06T08:40:49.683Z,3.08
2022-10-06T08:43:35.326Z,3.03
2022-10-06T08:46:24.732Z,3.13
2022-10-06T08:49:17.491Z,3.50
2022-10-06T08:52:21.967Z,2.83
2022-10-06T08:55:24.510Z,2.45
2022-10-06T08:58:33.389Z,2.10
2022-10-06T09:01:25.423Z,2.83
2022-10-06T09:04:23.046Z,2.17
2022-10-06T09:07:18.326Z,3.88
2022-10-06T09:10:32.603Z,2.20
2022-10-06T09:13:22.397Z,1.85
2022-10-06T09:16:12.515Z,1.67
2022-10-06T09:19:20.572Z,2.10
2022-10-06T09:22:06.886Z,1.60
2022-10-06T09:24:56.553Z,1.77
2022-10-06T09:27:43.689Z,1.90
2022-10-06T09:30:29.654Z,1.85
2022-10-06T09:33:21.066Z,1.98
2022-10-06T09:36:10.691Z,1.40
2022-10-06T09:38:58.156Z,1.35
2022-10-06T09:41:45.755Z,1.10
2022-10-06T09:44:40.921Z,1.13
2022-10-06T09:47:32.469Z,0.80
2022-10-06T09:50:28.228Z,1.27
2022-10-06T09:53:16.220Z,1.02
2022-10-06T09:56:05.071Z,1.00
2022-10-06T09:58:56.348Z,0.80
2022-10-06T10:01:42.329Z,1.10
2022-10-06T10:04:33.340Z,1.10
2022-10-06T10:07:27.489Z,1.65
2022-10-06T10:10:25.840Z,1.10
2022-10-06T10:13:22.496Z,0.82
2022-10-06T10:16:10.585Z,1.05
2022-10-06T10:18:57.058Z,0.82
2022-10-06T10:21:44.616Z,0.98
2022-10-06T10:24:47.582Z,0.93
2022-10-06T10:28:03.826Z,1.00
2022-10-06T10:31:21.177Z,1.05
2022-10-06T10:34:44.725Z,0.95
2022-10-06T10:37:46.378Z,1.65
2022-10-06T10:40:43.073Z,0.93
2022-10-06T10:43:34.323Z,1.08
2022-10-06T10:46:43.442Z,1.20
2022-10-06T10:49:32.110Z,1.63
2022-10-06T10:52:21.567Z,1.00
2022-10-06T10:55:27.984Z,1.00
2022-10-06T10:58:19.557Z,0.88
2022-10-06T11:01:15.781Z,0.90
2022-10-06T11:04:02.437Z,0.80
2022-10-06T11:07:23.402Z,0.88
2022-10-06T11:10:21.243Z,1.25
2022-10-06T11:13:24.920Z,0.68
2022-10-06T11:16:18.790Z,0.88
2022-10-06T11:19:18.104Z,1.42
2022-10-06T11:22:12.137Z,0.70
2022-10-06T11:25:13.660Z,0.82
2022-10-06T11:28:14.879Z,0.70
2022-10-06T11:31:30.329Z,0.90
2022-10-06T11:34:16.158Z,0.65
2022-10-06T11:37:26.155Z,0.70
2022-10-06T11:40:38.598Z,0.80
2022-10-06T11:43:45.055Z,1.23
2022-10-06T11:46:41.272Z,0.55
2022-10-06T11:49:28.341Z,0.70
2022-10-06T11:52:14.091Z,0.70
2022-10-06T11:55:18.465Z,0.75
2022-10-06T11:58:37.426Z,0.75
2022-10-06T12:01:44.694Z,0.70
2022-10-06T12:04:30.486Z,1.00
2022-10-06T12:07:15.885Z,0.60
2022-10-06T12:10:28.001Z,0.80
2022-10-06T12:13:39.956Z,0.82
2022-10-06T12:19:41.465Z,0.65
2022-10-06T12:22:39.833Z,0.65
2022-10-06T12:25:35.108Z,0.63
2022-10-06T12:28:44.690Z,0.60
2022-10-06T12:32:13.061Z,1.10
2022-10-06T12:35:15.340Z,0.80
2022-10-06T12:38:06.062Z,0.70
2022-10-06T12:40:55.457Z,0.70
2022-10-06T12:43:52.422Z,0.82
2022-10-06T12:46:43.798Z,0.73
2022-10-06T12:49:46.365Z,0.90
2022-10-06T12:52:51.624Z,0.57
2022-10-06T12:55:49.163Z,0.55
2022-10-06T12:58:34.625Z,0.70
2022-10-06T13:01:22.046Z,1.40
2022-10-06T13:04:30.063Z,1.80
2022-10-06T13:07:18.824Z,0.90
2022-10-06T13:10:13.589Z,1.00
2022-10-06T13:13:00.006Z,1.48
2022-10-06T13:15:45.936Z,0.95
2022-10-06T13:18:32.862Z,0.88
2022-10-06T13:21:18.436Z,0.75
2022-10-06T13:24:04.037Z,1.00
2022-10-06T13:26:50.317Z,0.60
2022-10-06T13:29:35.725Z,0.80
2022-10-06T13:32:21.680Z,1.13
2022-10-06T13:35:11.726Z,0.65
2022-10-06T13:38:01.295Z,0.90
2022-10-06T13:41:11.395Z,0.68
2022-10-06T13:43:57.300Z,0.68
2022-10-06T13:46:45.995Z,0.93
2022-10-06T13:49:35.512Z,1.67
2022-10-06T13:52:34.295Z,4.30
2022-10-06T13:55:24.240Z,3.70
2022-10-06T13:58:15.682Z,1.10
2022-10-06T14:01:02.052Z,1.27
2022-10-06T14:03:48.113Z,1.48
2022-10-06T14:06:33.894Z,0.90
2022-10-06T14:09:25.708Z,0.73
2022-10-06T14:12:15.310Z,0.70
2022-10-06T14:15:03.033Z,0.77
2022-10-06T14:17:57.245Z,0.93
2022-10-06T14:20:45.913Z,1.10
2022-10-06T14:23:40.034Z,1.00
2022-10-06T14:26:28.709Z,1.10
2022-10-06T14:29:14.572Z,1.10
2022-10-06T14:32:13.162Z,0.95
2022-10-06T14:34:58.910Z,0.90
2022-10-06T14:37:44.270Z,1.10
2022-10-06T14:40:30.081Z,1.05
2022-10-06T14:43:15.464Z,1.20
2022-10-06T14:46:04.024Z,1.38
2022-10-06T14:51:39.082Z,1.42
2022-10-06T14:54:25.236Z,1.10
2022-10-06T14:57:10.796Z,1.10
2022-10-06T14:59:56.418Z,1.63
2022-10-06T15:02:42.608Z,1.58
2022-10-06T15:05:28.471Z,1.10
2022-10-06T15:08:13.990Z,1.55
2022-10-06T15:10:59.748Z,1.60
2022-10-06T15:13:46.168Z,1.38
2022-10-06T15:16:33.231Z,1.83
2022-10-06T15:19:18.926Z,1.55
2022-10-06T15:22:06.272Z,1.67
2022-10-06T15:24:51.890Z,2.10
2022-10-06T15:27:56.527Z,1.98
2022-10-06T15:30:42.544Z,1.70
2022-10-06T15:33:30.483Z,1.30
2022-10-06T15:36:18.440Z,1.40
2022-10-06T15:39:06.946Z,1.63
2022-10-06T15:41:52.852Z,2.08
2022-10-06T15:44:38.493Z,1.95
2022-10-06T15:47:24.815Z,1.90
2022-10-06T15:50:11.392Z,1.50
2022-10-06T15:52:59.819Z,1.42
2022-10-06T15:55:46.066Z,1.70
2022-10-06T15:58:31.869Z,1.98
2022-10-06T16:01:35.925Z,6.30
2022-10-06T16:04:43.513Z,4.32
2022-10-06T16:07:31.493Z,6.32
2022-10-06T16:10:17.413Z,14.55
2022-10-06T16:13:02.766Z,14.18
2022-10-06T16:15:55.721Z,13.82
2022-10-06T16:18:41.409Z,18.40
2022-10-06T16:21:27.264Z,9.27
2022-10-06T16:24:12.794Z,7.30
2022-10-06T16:26:59.975Z,4.82
2022-10-06T16:29:45.528Z,8.40
2022-10-06T16:32:31.103Z,7.07
2022-10-06T16:35:18.508Z,7.28
2022-10-06T16:38:04.193Z,6.07
2022-10-06T16:41:01.536Z,8.38
2022-10-06T16:43:48.767Z,15.25
2022-10-06T16:46:34.733Z,12.38
2022-10-06T16:49:21.135Z,26.30
2022-10-06T16:52:06.760Z,11.55
2022-10-06T16:54:52.702Z,5.93
2022-10-06T16:57:37.965Z,5.65
2022-10-06T17:00:24.066Z,6.20
2022-10-06T17:03:09.853Z,8.55
2022-10-06T17:05:55.445Z,13.70
2022-10-06T17:08:42.055Z,12.27
2022-10-06T17:11:27.935Z,15.77
2022-10-06T17:14:13.589Z,14.68
2022-10-06T17:16:59.644Z,13.90
2022-10-06T17:19:45.015Z,12.40
2022-10-06T17:22:31.635Z,12.57
2022-10-06T17:25:17.161Z,11.88
2022-10-06T17:28:03.064Z,13.02
2022-10-06T17:30:52.528Z,13.85
2022-10-06T17:33:39.970Z,21.33
2022-10-06T17:36:26.217Z,20.08
2022-10-06T17:39:13.730Z,17.70
2022-10-06T17:41:59.845Z,15.82
2022-10-06T17:44:45.544Z,14.20
2022-10-06T17:47:30.901Z,15.50
2022-10-06T17:50:17.117Z,15.02
2022-10-06T17:53:02.777Z,12.93
2022-10-06T17:55:49.394Z,12.02
2022-10-06T17:58:37.980Z,13.00
2022-10-06T18:01:26.099Z,13.32
2022-10-06T18:04:15.520Z,13.85
2022-10-06T18:07:03.372Z,13.23
2022-10-06T18:10:09.418Z,14.52
2022-10-06T18:12:54.982Z,18.50
2022-10-06T18:15:40.626Z,20.90
2022-10-06T18:18:26.879Z,20.88
2022-10-06T18:21:13.036Z,22.52
2022-10-06T18:23:58.845Z,22.50
2022-10-06T18:26:48.122Z,31.42
2022-10-06T18:29:36.413Z,26.95
2022-10-06T18:38:38.885Z,28.52
2022-10-06T18:41:27.938Z,26.35
2022-10-06T18:44:13.363Z,29.23
2022-10-06T18:47:18.944Z,24.98
2022-10-06T18:50:04.989Z,23.98
2022-10-06T18:52:51.102Z,23.13
2022-10-06T18:55:36.546Z,22.75
2022-10-06T18:58:22.600Z,23.25
2022-10-06T19:01:08.500Z,23.52
2022-10-06T19:03:56.290Z,24.60
2022-10-06T19:06:45.237Z,22.40
2022-10-06T19:09:30.948Z,23.88
2022-10-06T19:12:16.539Z,23.38
2022-10-06T19:15:02.663Z,38.20
2022-10-06T19:17:49.486Z,30.08
2022-10-06T19:20:35.222Z,31.92
2022-10-06T19:23:20.866Z,32.65
2022-10-06T19:26:08.949Z,36.13
2022-10-06T19:28:54.705Z,33.20
2022-10-06T19:31:43.251Z,32.65
2022-10-06T19:34:29.085Z,33.47
2022-10-06T19:37:15.748Z,32.30
2022-10-06T19:40:01.713Z,34.00
2022-10-06T19:42:47.455Z,33.38
2022-10-06T19:45:33.263Z,33.90
2022-10-06T19:48:20.063Z,38.58
2022-10-06T19:51:16.527Z,29.15
2022-10-06T19:54:03.959Z,28.55
2022-10-06T19:56:49.669Z,36.58
2022-10-06T19:59:36.662Z,28.02
2022-10-06T20:02:23.393Z,29.48
2022-10-06T20:05:10.464Z,31.35
2022-10-06T20:07:56.123Z,30.58
2022-10-06T20:10:41.692Z,27.67
2022-10-06T20:13:27.295Z,26.00
2022-10-06T20:16:17.359Z,23.85
2022-10-06T20:19:03.129Z,22.15
2022-10-06T20:21:48.936Z,19.75
2022-10-06T20:24:35.242Z,19.98
2022-10-06T20:27:21.576Z,18.08
2022-10-06T20:30:08.057Z,19.58
2022-10-06T20:32:54.427Z,18.02
2022-10-06T20:35:40.045Z,18.77
2022-10-06T20:38:45.759Z,19.30
2022-10-06T20:41:32.248Z,24.05
2022-10-06T20:44:18.443Z,21.77
2022-10-06T20:47:04.819Z,20.83
2022-10-06T20:49:55.073Z,17.75
2022-10-06T20:52:40.825Z,18.33
2022-10-06T20:55:26.496Z,20.58
2022-10-06T20:58:12.014Z,18.13
2022-10-06T21:01:06.983Z,19.23
2022-10-06T21:03:54.832Z,21.92
2022-10-06T21:06:41.000Z,20.35
2022-10-06T21:09:28.540Z,21.05
2022-10-06T21:12:16.103Z,22.80
2022-10-06T21:15:01.823Z,24.75
2022-10-06T21:17:48.425Z,27.83
2022-10-06T21:20:34.669Z,29.10
2022-10-06T21:23:20.569Z,25.42
2022-10-06T21:26:07.714Z,22.85
2022-10-06T21:28:54.560Z,20.85
2022-10-06T21:31:41.853Z,19.67
2022-10-06T21:34:27.460Z,19.13
2022-10-06T21:37:13.638Z,20.23
2022-10-06T21:40:02.294Z,18.83
2022-10-06T21:42:48.855Z,19.85
2022-10-06T21:45:34.591Z,19.55
2022-10-06T21:48:20.598Z,17.75
2022-10-06T21:51:06.281Z,18.00
2022-10-06T21:53:52.533Z,17.58
2022-10-06T21:56:39.349Z,16.75
2022-10-06T21:59:25.103Z,17.85
2022-10-06T22:02:10.714Z,18.00
2022-10-06T22:04:56.459Z,16.10
2022-10-06T22:07:42.826Z,17.50
2022-10-06T22:10:28.592Z,16.98
2022-10-06T22:13:14.577Z,15.57
2022-10-06T22:16:04.260Z,13.18
2022-10-06T22:18:50.569Z,14.52
2022-10-06T22:21:38.307Z,12.13
2022-10-06T22:24:23.893Z,13.10
2022-10-06T22:27:09.499Z,11.90
2022-10-06T22:29:55.888Z,12.77
2022-10-06T22:32:41.338Z,16.25
2022-10-06T22:35:27.131Z,14.05
2022-10-06T22:38:12.408Z,13.18
2022-10-06T22:41:02.248Z,14.55
2022-10-06T22:43:48.660Z,15.30
2022-10-06T22:46:35.711Z,16.42
2022-10-06T22:49:21.444Z,17.42
2022-10-06T22:52:07.448Z,17.75
2022-10-06T22:54:52.965Z,16.75
2022-10-06T22:57:38.884Z,15.00
2022-10-06T23:00:24.532Z,16.55
2022-10-06T23:03:11.584Z,14.45
2022-10-06T23:05:59.889Z,13.57
2022-10-06T23:08:45.740Z,13.38
2022-10-06T23:11:31.292Z,13.73
2022-10-06T23:14:17.001Z,15.80
2022-10-06T23:17:02.420Z,14.02
2022-10-06T23:19:48.117Z,13.00
2022-10-06T23:22:33.646Z,13.02
2022-10-06T23:25:22.582Z,12.02
2022-10-06T23:30:56.716Z,18.15
2022-10-06T23:33:42.885Z,14.40
2022-10-06T23:36:28.547Z,13.00
2022-10-06T23:39:14.095Z,28.77
2022-10-06T23:42:00.749Z,20.30
2022-10-06T23:44:46.154Z,14.68
2022-10-06T23:47:31.680Z,12.75
2022-10-06T23:50:17.147Z,11.48
2022-10-06T23:53:03.074Z,11.63
2022-10-06T23:55:48.542Z,11.23
2022-10-06T23:58:34.610Z,10.23
